sensor_id;sensor_type;location;lat;lon;timestamp;P1;durP1;ratioP1;P2;durP2;ratioP2
4547;SDS011;2286;51.570;7.090;2022-10-16T00:02:13;8.53;;;5.10;;
4547;SDS011;2286;51.570;7.090;2022-10-16T00:04:40;8.27;;;5.37;;
4547;SDS011;2286;51.570;7.090;2022-10-16T00:07:07;7.10;;;5.10;;
4547;SDS011;2286;51.570;7.090;2022-10-16T00:09:33;12.83;;;5.20;;
4547;SDS011;2286;51.570;7.090;2022-10-16T00:12:02;6.00;;;5.40;;
4547;SDS011;2286;51.570;7.090;2022-10-16T00:14:31;11.13;;;4.80;;
4547;SDS011;2286;51.570;7.090;2022-10-16T00:16:58;7.40;;;5.10;;
4547;SDS011;2286;51.570;7.090;2022-10-16T00:19:25;7.03;;;5.10;;
4547;SDS011;2286;51.570;7.090;2022-10-16T00:21:52;7.40;;;5.13;;
4547;SDS011;2286;51.570;7.090;2022-10-16T00:24:19;8.87;;;5.90;;
4547;SDS011;2286;51.570;7.090;2022-10-16T00:26:45;8.80;;;5.80;;
4547;SDS011;2286;51.570;7.090;2022-10-16T00:29:17;7.53;;;5.60;;
4547;SDS011;2286;51.570;7.090;2022-10-16T00:31:43;5.90;;;4.40;;
4547;SDS011;2286;51.570;7.090;2022-10-16T00:34:10;10.50;;;5.43;;
4547;SDS011;2286;51.570;7.090;2022-10-16T00:36:37;5.23;;;4.53;;
4547;SDS011;2286;51.570;7.090;2022-10-16T00:39:04;4.70;;;4.30;;
4547;SDS011;2286;51.570;7.090;2022-10-16T00:41:31;6.87;;;4.60;;
4547;SDS011;2286;51.570;7.090;2022-10-16T00:43:59;5.07;;;4.00;;
4547;SDS011;2286;51.570;7.090;2022-10-16T00:46:37;4.30;;;3.90;;
4547;SDS011;2286;51.570;7.090;2022-10-16T00:49:05;5.87;;;4.50;;
4547;SDS011;2286;51.570;7.090;2022-10-16T00:51:35;7.37;;;4.43;;
4547;SDS011;2286;51.570;7.090;2022-10-16T00:54:04;4.90;;;3.90;;
4547;SDS011;2286;51.570;7.090;2022-10-16T00:56:36;9.23;;;4.70;;
4547;SDS011;2286;51.570;7.090;2022-10-16T00:59:03;4.83;;;4.00;;
4547;SDS011;2286;51.570;7.090;2022-10-16T01:01:36;7.23;;;4.53;;
4547;SDS011;2286;51.570;7.090;2022-10-16T01:04:03;4.63;;;4.07;;
4547;SDS011;2286;51.570;7.090;2022-10-16T01:06:31;4.47;;;4.00;;
4547;SDS011;2286;51.570;7.090;2022-10-16T01:09:09;6.23;;;3.27;;
4547;SDS011;2286;51.570;7.090;2022-10-16T01:11:44;3.90;;;3.60;;
4547;SDS011;2286;51.570;7.090;2022-10-16T01:14:20;4.97;;;3.30;;
4547;SDS011;2286;51.570;7.090;2022-10-16T01:16:55;4.27;;;2.87;;
4547;SDS011;2286;51.570;7.090;2022-10-16T01:19:32;3.60;;;2.83;;
4547;SDS011;2286;51.570;7.090;2022-10-16T01:22:10;4.17;;;3.10;;
4547;SDS011;2286;51.570;7.090;2022-10-16T01:24:38;3.87;;;2.77;;
4547;SDS011;2286;51.570;7.090;2022-10-16T01:27:12;3.90;;;2.43;;
4547;SDS011;2286;51.570;7.090;2022-10-16T01:29:46;3.40;;;3.00;;
4547;SDS011;2286;51.570;7.090;2022-10-16T01:32:28;5.10;;;3.03;;
4547;SDS011;2286;51.570;7.090;2022-10-16T01:35:00;3.80;;;2.37;;
4547;SDS011;2286;51.570;7.090;2022-10-16T01:37:32;3.47;;;3.17;;
4547;SDS011;2286;51.570;7.090;2022-10-16T01:40:04;4.53;;;2.87;;
4547;SDS011;2286;51.570;7.090;2022-10-16T01:42:35;4.17;;;2.80;;
4547;SDS011;2286;51.570;7.090;2022-10-16T01:45:05;4.17;;;2.50;;
4547;SDS011;2286;51.570;7.090;2022-10-16T01:47:36;3.80;;;2.57;;
4547;SDS011;2286;51.570;7.090;2022-10-16T01:50:05;3.20;;;2.30;;
4547;SDS011;2286;51.570;7.090;2022-10-16T01:52:34;3.00;;;2.20;;
4547;SDS011;2286;51.570;7.090;2022-10-16T01:55:04;3.90;;;2.17;;
4547;SDS011;2286;51.570;7.090;2022-10-16T01:57:33;4.03;;;2.30;;
4547;SDS011;2286;51.570;7.090;2022-10-16T02:00:07;2.50;;;2.33;;
4547;SDS011;2286;51.570;7.090;2022-10-16T02:02:37;3.77;;;2.53;;
4547;SDS011;2286;51.570;7.090;2022-10-16T02:05:08;6.37;;;2.90;;
4547;SDS011;2286;51.570;7.090;2022-10-16T02:07:41;4.17;;;2.20;;
4547;SDS011;2286;51.570;7.090;2022-10-16T02:10:08;2.40;;;2.20;;
4547;SDS011;2286;51.570;7.090;2022-10-16T02:12:36;3.07;;;2.33;;
4547;SDS011;2286;51.570;7.090;2022-10-16T02:15:07;4.83;;;2.73;;
4547;SDS011;2286;51.570;7.090;2022-10-16T02:17:35;4.60;;;3.30;;
4547;SDS011;2286;51.570;7.090;2022-10-16T02:20:02;2.50;;;2.30;;
4547;SDS011;2286;51.570;7.090;2022-10-16T02:22:32;6.13;;;3.20;;
4547;SDS011;2286;51.570;7.090;2022-10-16T02:25:02;8.77;;;3.50;;
4547;SDS011;2286;51.570;7.090;2022-10-16T02:27:33;8.27;;;4.07;;
4547;SDS011;2286;51.570;7.090;2022-10-16T02:30:07;10.83;;;3.27;;
4547;SDS011;2286;51.570;7.090;2022-10-16T02:32:38;3.03;;;2.60;;
4547;SDS011;2286;51.570;7.090;2022-10-16T02:35:08;4.17;;;2.83;;
4547;SDS011;2286;51.570;7.090;2022-10-16T02:37:35;3.77;;;3.10;;
4547;SDS011;2286;51.570;7.090;2022-10-16T02:40:05;3.37;;;3.07;;
4547;SDS011;2286;51.570;7.090;2022-10-16T02:42:33;5.90;;;3.17;;
4547;SDS011;2286;51.570;7.090;2022-10-16T02:45:01;4.47;;;3.27;;
4547;SDS011;2286;51.570;7.090;2022-10-16T02:47:30;2.20;;;2.00;;
4547;SDS011;2286;51.570;7.090;2022-10-16T02:49:57;7.90;;;2.80;;
4547;SDS011;2286;51.570;7.090;2022-10-16T02:52:24;11.00;;;10.10;;
4547;SDS011;2286;51.570;7.090;2022-10-16T02:54:52;3.30;;;2.47;;
4547;SDS011;2286;51.570;7.090;2022-10-16T02:57:19;4.10;;;2.07;;
4547;SDS011;2286;51.570;7.090;2022-10-16T02:59:46;2.17;;;2.00;;
4547;SDS011;2286;51.570;7.090;2022-10-16T03:02:13;2.77;;;2.43;;
4547;SDS011;2286;51.570;7.090;2022-10-16T03:04:41;4.13;;;2.43;;
4547;SDS011;2286;51.570;7.090;2022-10-16T03:07:08;2.90;;;2.27;;
4547;SDS011;2286;51.570;7.090;2022-10-16T03:09:35;2.60;;;2.40;;
4547;SDS011;2286;51.570;7.090;2022-10-16T03:12:02;2.73;;;2.37;;
4547;SDS011;2286;51.570;7.090;2022-10-16T03:14:29;2.40;;;2.20;;
4547;SDS011;2286;51.570;7.090;2022-10-16T03:16:56;4.10;;;2.70;;
4547;SDS011;2286;51.570;7.090;2022-10-16T03:19:23;2.40;;;2.20;;
4547;SDS011;2286;51.570;7.090;2022-10-16T03:21:51;2.90;;;2.27;;
4547;SDS011;2286;51.570;7.090;2022-10-16T03:24:18;2.90;;;2.20;;
4547;SDS011;2286;51.570;7.090;2022-10-16T03:26:45;3.10;;;1.97;;
4547;SDS011;2286;51.570;7.090;2022-10-16T03:29:12;3.60;;;2.40;;
4547;SDS011;2286;51.570;7.090;2022-10-16T03:31:39;1.83;;;1.70;;
4547;SDS011;2286;51.570;7.090;2022-10-16T03:34:07;2.10;;;1.90;;
4547;SDS011;2286;51.570;7.090;2022-10-16T03:36:34;2.30;;;1.73;;
4547;SDS011;2286;51.570;7.090;2022-10-16T03:39:02;1.87;;;1.77;;
4547;SDS011;2286;51.570;7.090;2022-10-16T03:41:29;2.40;;;1.70;;
4547;SDS011;2286;51.570;7.090;2022-10-16T03:43:56;2.73;;;2.00;;
4547;SDS011;2286;51.570;7.090;2022-10-16T03:46:23;1.80;;;1.70;;
4547;SDS011;2286;51.570;7.090;2022-10-16T03:48:50;2.10;;;1.57;;
4547;SDS011;2286;51.570;7.090;2022-10-16T03:51:17;1.37;;;1.27;;
4547;SDS011;2286;51.570;7.090;2022-10-16T03:53:44;3.47;;;1.90;;
4547;SDS011;2286;51.570;7.090;2022-10-16T03:56:13;2.20;;;2.00;;
4547;SDS011;2286;51.570;7.090;2022-10-16T03:58:40;2.90;;;1.47;;
4547;SDS011;2286;51.570;7.090;2022-10-16T04:01:07;2.83;;;1.80;;
4547;SDS011;2286;51.570;7.090;2022-10-16T04:03:34;2.00;;;1.50;;
4547;SDS011;2286;51.570;7.090;2022-10-16T04:06:01;1.73;;;1.30;;
4547;SDS011;2286;51.570;7.090;2022-10-16T04:08:28;1.83;;;1.67;;
4547;SDS011;2286;51.570;7.090;2022-10-16T04:10:55;1.63;;;1.53;;
4547;SDS011;2286;51.570;7.090;2022-10-16T04:13:23;3.47;;;1.40;;
4547;SDS011;2286;51.570;7.090;2022-10-16T04:15:50;1.83;;;1.40;;
4547;SDS011;2286;51.570;7.090;2022-10-16T04:18:17;1.63;;;1.40;;
4547;SDS011;2286;51.570;7.090;2022-10-16T04:20:44;3.10;;;1.67;;
4547;SDS011;2286;51.570;7.090;2022-10-16T04:23:11;7.37;;;1.60;;
4547;SDS011;2286;51.570;7.090;2022-10-16T04:25:38;3.63;;;1.50;;
4547;SDS011;2286;51.570;7.090;2022-10-16T04:28:05;2.17;;;1.40;;
4547;SDS011;2286;51.570;7.090;2022-10-16T04:30:33;2.30;;;1.30;;
4547;SDS011;2286;51.570;7.090;2022-10-16T04:33:00;2.90;;;1.50;;
4547;SDS011;2286;51.570;7.090;2022-10-16T04:35:27;2.13;;;1.67;;
4547;SDS011;2286;51.570;7.090;2022-10-16T04:37:54;2.23;;;1.17;;
4547;SDS011;2286;51.570;7.090;2022-10-16T04:40:23;1.67;;;1.57;;
4547;SDS011;2286;51.570;7.090;2022-10-16T04:42:50;1.53;;;1.30;;
4547;SDS011;2286;51.570;7.090;2022-10-16T04:45:17;1.40;;;1.30;;
4547;SDS011;2286;51.570;7.090;2022-10-16T04:47:45;3.10;;;1.43;;
4547;SDS011;2286;51.570;7.090;2022-10-16T04:50:12;2.30;;;1.40;;
4547;SDS011;2286;51.570;7.090;2022-10-16T04:52:39;2.77;;;1.30;;
4547;SDS011;2286;51.570;7.090;2022-10-16T04:55:07;1.50;;;1.40;;
4547;SDS011;2286;51.570;7.090;2022-10-16T04:57:34;1.93;;;1.83;;
4547;SDS011;2286;51.570;7.090;2022-10-16T05:00:01;3.47;;;1.63;;
4547;SDS011;2286;51.570;7.090;2022-10-16T05:02:29;2.50;;;2.30;;
4547;SDS011;2286;51.570;7.090;2022-10-16T05:04:57;2.53;;;2.33;;
4547;SDS011;2286;51.570;7.090;2022-10-16T05:07:24;2.20;;;2.00;;
4547;SDS011;2286;51.570;7.090;2022-10-16T05:09:51;2.20;;;1.80;;
4547;SDS011;2286;51.570;7.090;2022-10-16T05:12:18;1.77;;;1.40;;
4547;SDS011;2286;51.570;7.090;2022-10-16T05:14:45;1.70;;;1.60;;
4547;SDS011;2286;51.570;7.090;2022-10-16T05:17:12;1.83;;;1.37;;
4547;SDS011;2286;51.570;7.090;2022-10-16T05:19:39;1.87;;;1.50;;
4547;SDS011;2286;51.570;7.090;2022-10-16T05:22:07;1.60;;;1.50;;
4547;SDS011;2286;51.570;7.090;2022-10-16T05:24:34;2.50;;;1.80;;
4547;SDS011;2286;51.570;7.090;2022-10-16T05:27:01;1.60;;;1.50;;
4547;SDS011;2286;51.570;7.090;2022-10-16T05:29:28;2.60;;;1.67;;
4547;SDS011;2286;51.570;7.090;2022-10-16T05:31:55;3.10;;;1.97;;
4547;SDS011;2286;51.570;7.090;2022-10-16T05:34:22;1.70;;;1.60;;
4547;SDS011;2286;51.570;7.090;2022-10-16T05:36:49;3.13;;;1.80;;
4547;SDS011;2286;51.570;7.090;2022-10-16T05:39:18;1.60;;;1.50;;
4547;SDS011;2286;51.570;7.090;2022-10-16T05:41:45;2.00;;;1.90;;
4547;SDS011;2286;51.570;7.090;2022-10-16T05:44:12;1.70;;;1.57;;
4547;SDS011;2286;51.570;7.090;2022-10-16T05:46:39;3.33;;;1.70;;
4547;SDS011;2286;51.570;7.090;2022-10-16T05:49:06;1.70;;;1.60;;
4547;SDS011;2286;51.570;7.090;2022-10-16T05:51:33;2.57;;;1.60;;
4547;SDS011;2286;51.570;7.090;2022-10-16T05:54:00;1.70;;;1.40;;
4547;SDS011;2286;51.570;7.090;2022-10-16T05:56:28;2.57;;;1.50;;
4547;SDS011;2286;51.570;7.090;2022-10-16T05:58:55;1.43;;;1.33;;
4547;SDS011;2286;51.570;7.090;2022-10-16T06:01:22;1.67;;;1.40;;
4547;SDS011;2286;51.570;7.090;2022-10-16T06:03:49;1.70;;;1.60;;
4547;SDS011;2286;51.570;7.090;2022-10-16T06:06:18;1.87;;;1.67;;
4547;SDS011;2286;51.570;7.090;2022-10-16T06:08:46;2.60;;;2.03;;
4547;SDS011;2286;51.570;7.090;2022-10-16T06:11:15;2.40;;;1.60;;
4547;SDS011;2286;51.570;7.090;2022-10-16T06:13:44;3.03;;;1.90;;
4547;SDS011;2286;51.570;7.090;2022-10-16T06:16:15;6.27;;;1.90;;
4547;SDS011;2286;51.570;7.090;2022-10-16T06:18:42;5.17;;;1.73;;
4547;SDS011;2286;51.570;7.090;2022-10-16T06:21:10;1.50;;;1.40;;
4547;SDS011;2286;51.570;7.090;2022-10-16T06:23:38;2.70;;;1.83;;
4547;SDS011;2286;51.570;7.090;2022-10-16T06:26:06;2.23;;;1.30;;
4547;SDS011;2286;51.570;7.090;2022-10-16T06:28:33;2.00;;;1.50;;
4547;SDS011;2286;51.570;7.090;2022-10-16T06:31:02;2.70;;;1.70;;
4547;SDS011;2286;51.570;7.090;2022-10-16T06:33:30;2.53;;;1.53;;
4547;SDS011;2286;51.570;7.090;2022-10-16T06:36:01;1.77;;;1.67;;
4547;SDS011;2286;51.570;7.090;2022-10-16T06:38:28;3.80;;;1.70;;
4547;SDS011;2286;51.570;7.090;2022-10-16T06:40:56;3.00;;;1.63;;
4547;SDS011;2286;51.570;7.090;2022-10-16T06:43:23;3.07;;;1.53;;
4547;SDS011;2286;51.570;7.090;2022-10-16T06:45:50;2.00;;;1.57;;
4547;SDS011;2286;51.570;7.090;2022-10-16T06:48:20;5.93;;;1.70;;
4547;SDS011;2286;51.570;7.090;2022-10-16T06:50:57;4.20;;;1.60;;
4547;SDS011;2286;51.570;7.090;2022-10-16T06:53:25;2.23;;;1.80;;
4547;SDS011;2286;51.570;7.090;2022-10-16T06:55:53;3.10;;;1.83;;
4547;SDS011;2286;51.570;7.090;2022-10-16T06:58:20;2.73;;;2.27;;
4547;SDS011;2286;51.570;7.090;2022-10-16T07:00:47;2.20;;;2.00;;
4547;SDS011;2286;51.570;7.090;2022-10-16T07:03:15;1.90;;;1.57;;
4547;SDS011;2286;51.570;7.090;2022-10-16T07:05:43;2.33;;;1.73;;
4547;SDS011;2286;51.570;7.090;2022-10-16T07:08:10;1.67;;;1.57;;
4547;SDS011;2286;51.570;7.090;2022-10-16T07:10:37;2.27;;;1.67;;
4547;SDS011;2286;51.570;7.090;2022-10-16T07:13:04;2.03;;;1.80;;
4547;SDS011;2286;51.570;7.090;2022-10-16T07:15:32;2.53;;;1.70;;
4547;SDS011;2286;51.570;7.090;2022-10-16T07:18:00;2.17;;;1.50;;
4547;SDS011;2286;51.570;7.090;2022-10-16T07:20:27;1.90;;;1.70;;
4547;SDS011;2286;51.570;7.090;2022-10-16T07:22:55;1.80;;;1.70;;
4547;SDS011;2286;51.570;7.090;2022-10-16T07:25:22;3.10;;;1.70;;
4547;SDS011;2286;51.570;7.090;2022-10-16T07:27:49;1.90;;;1.70;;
4547;SDS011;2286;51.570;7.090;2022-10-16T07:30:16;4.73;;;1.77;;
4547;SDS011;2286;51.570;7.090;2022-10-16T07:32:43;1.80;;;1.67;;
4547;SDS011;2286;51.570;7.090;2022-10-16T07:35:10;2.17;;;1.60;;
4547;SDS011;2286;51.570;7.090;2022-10-16T07:37:37;2.03;;;1.67;;
4547;SDS011;2286;51.570;7.090;2022-10-16T07:40:06;1.80;;;1.70;;
4547;SDS011;2286;51.570;7.090;2022-10-16T07:42:34;1.83;;;1.70;;
4547;SDS011;2286;51.570;7.090;2022-10-16T07:45:01;3.77;;;1.80;;
4547;SDS011;2286;51.570;7.090;2022-10-16T07:47:27;1.80;;;1.50;;
4547;SDS011;2286;51.570;7.090;2022-10-16T07:49:54;1.83;;;1.70;;
4547;SDS011;2286;51.570;7.090;2022-10-16T07:52:22;2.00;;;1.50;;
4547;SDS011;2286;51.570;7.090;2022-10-16T07:54:48;2.43;;;1.70;;
4547;SDS011;2286;51.570;7.090;2022-10-16T07:57:17;1.90;;;1.80;;
4547;SDS011;2286;51.570;7.090;2022-10-16T07:59:45;2.63;;;1.70;;
4547;SDS011;2286;51.570;7.090;2022-10-16T08:02:12;4.20;;;1.53;;
4547;SDS011;2286;51.570;7.090;2022-10-16T08:04:39;2.20;;;1.30;;
4547;SDS011;2286;51.570;7.090;2022-10-16T08:07:06;1.60;;;1.40;;
4547;SDS011;2286;51.570;7.090;2022-10-16T08:09:33;1.50;;;1.40;;
4547;SDS011;2286;51.570;7.090;2022-10-16T08:12:00;3.17;;;2.00;;
4547;SDS011;2286;51.570;7.090;2022-10-16T08:14:30;2.60;;;1.30;;
4547;SDS011;2286;51.570;7.090;2022-10-16T08:16:57;3.63;;;1.40;;
4547;SDS011;2286;51.570;7.090;2022-10-16T08:19:24;2.27;;;1.80;;
4547;SDS011;2286;51.570;7.090;2022-10-16T08:21:51;1.60;;;1.47;;
4547;SDS011;2286;51.570;7.090;2022-10-16T08:24:18;2.27;;;1.77;;
4547;SDS011;2286;51.570;7.090;2022-10-16T08:26:45;1.40;;;1.30;;
4547;SDS011;2286;51.570;7.090;2022-10-16T08:29:13;1.93;;;1.73;;
4547;SDS011;2286;51.570;7.090;2022-10-16T08:31:41;3.40;;;1.33;;
4547;SDS011;2286;51.570;7.090;2022-10-16T08:34:08;1.30;;;1.10;;
4547;SDS011;2286;51.570;7.090;2022-10-16T08:36:35;2.23;;;1.30;;
4547;SDS011;2286;51.570;7.090;2022-10-16T08:39:02;1.57;;;1.27;;
4547;SDS011;2286;51.570;7.090;2022-10-16T08:41:37;3.53;;;1.93;;
4547;SDS011;2286;51.570;7.090;2022-10-16T08:44:43;5.03;;;1.40;;
4547;SDS011;2286;51.570;7.090;2022-10-16T08:47:33;3.20;;;1.40;;
4547;SDS011;2286;51.570;7.090;2022-10-16T08:50:10;3.60;;;1.37;;
4547;SDS011;2286;51.570;7.090;2022-10-16T08:52:40;2.67;;;1.50;;
4547;SDS011;2286;51.570;7.090;2022-10-16T08:55:11;4.43;;;1.80;;
4547;SDS011;2286;51.570;7.090;2022-10-16T08:57:50;4.83;;;1.50;;
4547;SDS011;2286;51.570;7.090;2022-10-16T09:00:17;2.63;;;1.23;;
4547;SDS011;2286;51.570;7.090;2022-10-16T09:02:48;2.70;;;1.47;;
4547;SDS011;2286;51.570;7.090;2022-10-16T09:05:30;3.67;;;1.40;;
4547;SDS011;2286;51.570;7.090;2022-10-16T09:08:09;2.77;;;1.33;;
4547;SDS011;2286;51.570;7.090;2022-10-16T09:10:46;2.40;;;1.30;;
4547;SDS011;2286;51.570;7.090;2022-10-16T09:13:23;4.10;;;2.40;;
4547;SDS011;2286;51.570;7.090;2022-10-16T09:15:54;5.47;;;1.93;;
4547;SDS011;2286;51.570;7.090;2022-10-16T09:18:30;3.20;;;1.27;;
4547;SDS011;2286;51.570;7.090;2022-10-16T09:21:05;2.80;;;1.20;;
4547;SDS011;2286;51.570;7.090;2022-10-16T09:23:39;4.50;;;1.27;;
4547;SDS011;2286;51.570;7.090;2022-10-16T09:26:09;4.70;;;1.40;;
4547;SDS011;2286;51.570;7.090;2022-10-16T09:28:38;6.47;;;2.17;;
4547;SDS011;2286;51.570;7.090;2022-10-16T09:31:05;2.67;;;1.40;;
4547;SDS011;2286;51.570;7.090;2022-10-16T09:33:36;5.73;;;1.10;;
4547;SDS011;2286;51.570;7.090;2022-10-16T09:36:05;3.73;;;1.47;;
4547;SDS011;2286;51.570;7.090;2022-10-16T09:38:33;2.03;;;1.30;;
4547;SDS011;2286;51.570;7.090;2022-10-16T09:41:02;1.77;;;1.10;;
4547;SDS011;2286;51.570;7.090;2022-10-16T09:43:39;4.13;;;1.43;;
4547;SDS011;2286;51.570;7.090;2022-10-16T09:46:09;1.90;;;1.00;;
4547;SDS011;2286;51.570;7.090;2022-10-16T09:48:50;1.50;;;1.10;;
4547;SDS011;2286;51.570;7.090;2022-10-16T09:51:21;6.23;;;1.40;;
4547;SDS011;2286;51.570;7.090;2022-10-16T09:53:53;2.60;;;1.10;;
4547;SDS011;2286;51.570;7.090;2022-10-16T09:56:22;1.93;;;1.20;;
4547;SDS011;2286;51.570;7.090;2022-10-16T09:58:50;2.13;;;1.20;;
4547;SDS011;2286;51.570;7.090;2022-10-16T10:01:18;1.93;;;1.40;;
4547;SDS011;2286;51.570;7.090;2022-10-16T10:03:46;4.80;;;1.50;;
4547;SDS011;2286;51.570;7.090;2022-10-16T10:06:23;2.00;;;0.90;;
4547;SDS011;2286;51.570;7.090;2022-10-16T10:08:56;2.10;;;1.27;;
4547;SDS011;2286;51.570;7.090;2022-10-16T10:11:38;0.90;;;0.80;;
4547;SDS011;2286;51.570;7.090;2022-10-16T10:14:08;4.83;;;1.20;;
4547;SDS011;2286;51.570;7.090;2022-10-16T10:16:43;1.97;;;1.20;;
4547;SDS011;2286;51.570;7.090;2022-10-16T10:19:13;1.70;;;1.23;;
4547;SDS011;2286;51.570;7.090;2022-10-16T10:21:42;3.10;;;1.00;;
4547;SDS011;2286;51.570;7.090;2022-10-16T10:24:10;1.10;;;0.80;;
4547;SDS011;2286;51.570;7.090;2022-10-16T10:26:39;3.63;;;1.00;;
4547;SDS011;2286;51.570;7.090;2022-10-16T10:29:12;2.10;;;1.40;;
4547;SDS011;2286;51.570;7.090;2022-10-16T10:31:53;1.50;;;0.90;;
4547;SDS011;2286;51.570;7.090;2022-10-16T10:34:35;3.60;;;1.13;;
4547;SDS011;2286;51.570;7.090;2022-10-16T10:37:23;1.53;;;1.00;;
4547;SDS011;2286;51.570;7.090;2022-10-16T10:40:06;1.60;;;1.10;;
4547;SDS011;2286;51.570;7.090;2022-10-16T10:42:44;2.87;;;1.10;;
4547;SDS011;2286;51.570;7.090;2022-10-16T10:45:23;5.03;;;1.87;;
4547;SDS011;2286;51.570;7.090;2022-10-16T10:47:56;3.20;;;1.10;;
4547;SDS011;2286;51.570;7.090;2022-10-16T10:50:34;2.40;;;1.40;;
4547;SDS011;2286;51.570;7.090;2022-10-16T10:53:11;2.37;;;1.17;;
4547;SDS011;2286;51.570;7.090;2022-10-16T10:55:48;3.80;;;1.20;;
4547;SDS011;2286;51.570;7.090;2022-10-16T10:58:26;2.00;;;1.53;;
4547;SDS011;2286;51.570;7.090;2022-10-16T11:01:12;2.20;;;1.23;;
4547;SDS011;2286;51.570;7.090;2022-10-16T11:03:47;2.00;;;1.23;;
4547;SDS011;2286;51.570;7.090;2022-10-16T11:06:29;1.47;;;1.00;;
4547;SDS011;2286;51.570;7.090;2022-10-16T11:09:02;2.10;;;1.13;;
4547;SDS011;2286;51.570;7.090;2022-10-16T11:11:38;3.37;;;1.50;;
4547;SDS011;2286;51.570;7.090;2022-10-16T11:14:11;3.10;;;1.30;;
4547;SDS011;2286;51.570;7.090;2022-10-16T11:16:43;2.00;;;1.43;;
4547;SDS011;2286;51.570;7.090;2022-10-16T11:19:26;3.10;;;1.30;;
4547;SDS011;2286;51.570;7.090;2022-10-16T11:22:03;4.33;;;1.10;;
4547;SDS011;2286;51.570;7.090;2022-10-16T11:24:37;3.37;;;1.10;;
4547;SDS011;2286;51.570;7.090;2022-10-16T11:27:12;1.23;;;0.90;;
4547;SDS011;2286;51.570;7.090;2022-10-16T11:29:44;3.80;;;1.20;;
4547;SDS011;2286;51.570;7.090;2022-10-16T11:32:19;1.50;;;1.03;;
4547;SDS011;2286;51.570;7.090;2022-10-16T11:34:50;2.20;;;1.40;;
4547;SDS011;2286;51.570;7.090;2022-10-16T11:37:23;2.13;;;1.10;;
4547;SDS011;2286;51.570;7.090;2022-10-16T11:39:56;1.70;;;1.30;;
4547;SDS011;2286;51.570;7.090;2022-10-16T11:42:31;6.20;;;1.40;;
4547;SDS011;2286;51.570;7.090;2022-10-16T11:45:07;1.97;;;1.00;;
4547;SDS011;2286;51.570;7.090;2022-10-16T11:47:48;2.40;;;1.10;;
4547;SDS011;2286;51.570;7.090;2022-10-16T11:50:22;2.80;;;1.23;;
4547;SDS011;2286;51.570;7.090;2022-10-16T11:52:53;1.60;;;1.10;;
4547;SDS011;2286;51.570;7.090;2022-10-16T11:55:28;1.87;;;1.00;;
4547;SDS011;2286;51.570;7.090;2022-10-16T11:58:02;2.10;;;1.13;;
4547;SDS011;2286;51.570;7.090;2022-10-16T12:00:34;1.27;;;0.97;;
4547;SDS011;2286;51.570;7.090;2022-10-16T12:03:10;1.83;;;0.90;;
4547;SDS011;2286;51.570;7.090;2022-10-16T12:05:48;1.10;;;1.00;;
4547;SDS011;2286;51.570;7.090;2022-10-16T12:08:23;1.87;;;0.83;;
4547;SDS011;2286;51.570;7.090;2022-10-16T12:10:52;1.43;;;0.90;;
4547;SDS011;2286;51.570;7.090;2022-10-16T12:13:33;2.60;;;1.10;;
4547;SDS011;2286;51.570;7.090;2022-10-16T12:16:05;1.83;;;1.03;;
4547;SDS011;2286;51.570;7.090;2022-10-16T12:18:45;1.40;;;1.10;;
4547;SDS011;2286;51.570;7.090;2022-10-16T12:21:14;1.60;;;0.97;;
4547;SDS011;2286;51.570;7.090;2022-10-16T12:23:47;2.33;;;1.20;;
4547;SDS011;2286;51.570;7.090;2022-10-16T12:26:25;2.93;;;1.13;;
4547;SDS011;2286;51.570;7.090;2022-10-16T12:28:53;1.07;;;0.87;;
4547;SDS011;2286;51.570;7.090;2022-10-16T12:31:21;1.50;;;1.10;;
4547;SDS011;2286;51.570;7.090;2022-10-16T12:33:54;1.40;;;1.10;;
4547;SDS011;2286;51.570;7.090;2022-10-16T12:36:27;2.67;;;1.30;;
4547;SDS011;2286;51.570;7.090;2022-10-16T12:38:56;1.30;;;1.20;;
4547;SDS011;2286;51.570;7.090;2022-10-16T12:41:26;2.20;;;1.17;;
4547;SDS011;2286;51.570;7.090;2022-10-16T12:43:54;2.17;;;1.30;;
4547;SDS011;2286;51.570;7.090;2022-10-16T12:46:23;8.13;;;1.83;;
4547;SDS011;2286;51.570;7.090;2022-10-16T12:49:21;2.03;;;1.07;;
4547;SDS011;2286;51.570;7.090;2022-10-16T12:51:55;2.37;;;1.20;;
4547;SDS011;2286;51.570;7.090;2022-10-16T12:54:25;3.57;;;1.10;;
4547;SDS011;2286;51.570;7.090;2022-10-16T12:57:01;2.93;;;1.30;;
4547;SDS011;2286;51.570;7.090;2022-10-16T12:59:45;1.30;;;1.00;;
4547;SDS011;2286;51.570;7.090;2022-10-16T13:02:26;1.27;;;1.07;;
4547;SDS011;2286;51.570;7.090;2022-10-16T13:05:24;1.73;;;1.00;;
4547;SDS011;2286;51.570;7.090;2022-10-16T13:07:59;3.50;;;1.00;;
4547;SDS011;2286;51.570;7.090;2022-10-16T13:10:37;2.17;;;1.00;;
4547;SDS011;2286;51.570;7.090;2022-10-16T13:13:16;1.40;;;0.90;;
4547;SDS011;2286;51.570;7.090;2022-10-16T13:16:02;2.17;;;1.00;;
4547;SDS011;2286;51.570;7.090;2022-10-16T13:18:39;1.90;;;1.23;;
4547;SDS011;2286;51.570;7.090;2022-10-16T13:21:18;1.73;;;1.10;;
4547;SDS011;2286;51.570;7.090;2022-10-16T13:24:02;1.80;;;1.40;;
4547;SDS011;2286;51.570;7.090;2022-10-16T13:26:40;5.10;;;1.50;;
4547;SDS011;2286;51.570;7.090;2022-10-16T13:29:14;3.53;;;1.20;;
4547;SDS011;2286;51.570;7.090;2022-10-16T13:31:42;2.80;;;1.20;;
4547;SDS011;2286;51.570;7.090;2022-10-16T13:34:11;1.40;;;1.30;;
4547;SDS011;2286;51.570;7.090;2022-10-16T13:36:45;3.93;;;1.60;;
4547;SDS011;2286;51.570;7.090;2022-10-16T13:39:16;2.47;;;1.50;;
4547;SDS011;2286;51.570;7.090;2022-10-16T13:41:57;10.77;;;1.80;;
4547;SDS011;2286;51.570;7.090;2022-10-16T13:44:29;3.30;;;1.40;;
4547;SDS011;2286;51.570;7.090;2022-10-16T13:47:02;2.23;;;1.47;;
4547;SDS011;2286;51.570;7.090;2022-10-16T13:49:30;2.90;;;1.37;;
4547;SDS011;2286;51.570;7.090;2022-10-16T13:51:57;1.60;;;1.03;;
4547;SDS011;2286;51.570;7.090;2022-10-16T13:54:25;2.47;;;1.40;;
4547;SDS011;2286;51.570;7.090;2022-10-16T13:56:54;3.03;;;1.03;;
4547;SDS011;2286;51.570;7.090;2022-10-16T13:59:22;2.70;;;1.30;;
4547;SDS011;2286;51.570;7.090;2022-10-16T14:01:53;4.50;;;1.47;;
4547;SDS011;2286;51.570;7.090;2022-10-16T14:04:22;2.80;;;1.13;;
4547;SDS011;2286;51.570;7.090;2022-10-16T14:06:51;2.60;;;1.00;;
4547;SDS011;2286;51.570;7.090;2022-10-16T14:09:21;4.07;;;1.83;;
4547;SDS011;2286;51.570;7.090;2022-10-16T14:11:51;2.07;;;1.03;;
4547;SDS011;2286;51.570;7.090;2022-10-16T14:14:21;2.37;;;1.27;;
4547;SDS011;2286;51.570;7.090;2022-10-16T14:16:49;2.37;;;1.00;;
4547;SDS011;2286;51.570;7.090;2022-10-16T14:19:20;1.90;;;0.97;;
4547;SDS011;2286;51.570;7.090;2022-10-16T14:21:50;1.13;;;0.90;;
4547;SDS011;2286;51.570;7.090;2022-10-16T14:24:30;1.67;;;1.07;;
4547;SDS011;2286;51.570;7.090;2022-10-16T14:26:59;1.60;;;1.00;;
4547;SDS011;2286;51.570;7.090;2022-10-16T14:29:27;2.00;;;0.90;;
4547;SDS011;2286;51.570;7.090;2022-10-16T14:31:57;2.93;;;1.00;;
4547;SDS011;2286;51.570;7.090;2022-10-16T14:34:27;3.47;;;1.07;;
4547;SDS011;2286;51.570;7.090;2022-10-16T14:36:58;2.03;;;0.87;;
4547;SDS011;2286;51.570;7.090;2022-10-16T14:39:32;1.60;;;0.90;;
4547;SDS011;2286;51.570;7.090;2022-10-16T14:42:00;3.13;;;0.97;;
4547;SDS011;2286;51.570;7.090;2022-10-16T14:44:28;1.40;;;1.07;;
4547;SDS011;2286;51.570;7.090;2022-10-16T14:46:58;2.33;;;1.10;;
4547;SDS011;2286;51.570;7.090;2022-10-16T14:49:34;1.87;;;1.20;;
4547;SDS011;2286;51.570;7.090;2022-10-16T14:52:01;1.90;;;1.00;;
4547;SDS011;2286;51.570;7.090;2022-10-16T14:54:31;3.20;;;1.47;;
4547;SDS011;2286;51.570;7.090;2022-10-16T14:56:58;2.83;;;1.37;;
4547;SDS011;2286;51.570;7.090;2022-10-16T14:59:27;4.00;;;1.10;;
4547;SDS011;2286;51.570;7.090;2022-10-16T15:01:56;4.10;;;1.37;;
4547;SDS011;2286;51.570;7.090;2022-10-16T15:04:23;3.00;;;1.00;;
4547;SDS011;2286;51.570;7.090;2022-10-16T15:06:51;2.70;;;0.97;;
4547;SDS011;2286;51.570;7.090;2022-10-16T15:09:18;1.17;;;1.00;;
4547;SDS011;2286;51.570;7.090;2022-10-16T15:11:45;2.70;;;1.00;;
4547;SDS011;2286;51.570;7.090;2022-10-16T15:14:12;1.63;;;0.90;;
4547;SDS011;2286;51.570;7.090;2022-10-16T15:16:39;4.20;;;1.00;;
4547;SDS011;2286;51.570;7.090;2022-10-16T15:19:06;2.13;;;1.30;;
4547;SDS011;2286;51.570;7.090;2022-10-16T15:21:33;3.90;;;1.30;;
4547;SDS011;2286;51.570;7.090;2022-10-16T15:24:02;2.40;;;1.10;;
4547;SDS011;2286;51.570;7.090;2022-10-16T15:29:05;2.77;;;1.30;;
4547;SDS011;2286;51.570;7.090;2022-10-16T15:31:33;2.43;;;1.63;;
4547;SDS011;2286;51.570;7.090;2022-10-16T15:34:00;3.00;;;1.30;;
4547;SDS011;2286;51.570;7.090;2022-10-16T15:36:30;2.97;;;1.30;;
4547;SDS011;2286;51.570;7.090;2022-10-16T15:39:02;3.03;;;1.90;;